Time;durP1;ratioP1;P1;durP2;ratioP2;P2;SDS_P1;SDS_P2;PMS_P1;PMS_P2;Temp;Humidity;BMP_temperature;BMP_pressure;BME280_temperature;BME280_humidity;BME280_pressure;Samples;Min_cycle;Max_cycle;Signal;HPM_P1;HPM_P2
2022/07/27 00:02:20;;;;;;;;;;;;;;;18.15;50.13;101379.19;5002804;28;20300;-81
2022/07/27 00:04:45;;;;;;;;;;;;;;;18.22;49.21;101372.72;5003827;28;19926;-81
2022/07/27 00:07:10;;;;;;;;;;;;;;;18.04;50.06;101382.25;5003395;28;19918;-81
2022/07/27 00:09:36;;;;;;;;;;;;;;;18.13;49.36;101384.50;5002567;28;19929;-81
2022/07/27 00:12:01;;;;;;;;;;;;;;;18.12;49.79;101381.94;5006629;28;20403;-81
2022/07/27 00:14:26;;;;;;;;;;;;;;;18.16;49.12;101379.09;5004311;28;19922;-81
2022/07/27 00:16:52;;;;;;;;;;;;;;;18.06;49.18;101382.19;4999437;28;20269;-82
2022/07/27 00:19:17;;;;;;;;;;;;;;;18.22;49.23;101371.84;5002462;28;19929;-80
2022/07/27 00:21:42;;;;;;;;;;;;;;;18.07;49.65;101370.75;4988280;28;19925;-81
2022/07/27 00:24:08;;;;;;;;;;;;;;;18.16;49.21;101375.59;5003894;28;19936;-81
2022/07/27 00:26:33;;;;;;;;;;;;;;;18.09;49.06;101374.19;5001411;28;19922;-81
2022/07/27 00:28:58;;;;;;;;;;;;;;;18.14;48.81;101380.94;4997658;28;20017;-81
2022/07/27 00:31:23;;;;;;;;;;;;;;;18.10;48.15;101381.13;4996625;28;19957;-81
2022/07/27 00:33:49;;;;;;;;;;;;;;;18.03;49.97;101380.56;5007359;28;20383;-81
2022/07/27 00:36:14;;;;;;;;;;;;;;;18.06;48.75;101383.06;5008951;28;20515;-81
2022/07/27 00:38:40;;;;;;;;;;;;;;;17.84;49.65;101378.75;5007103;28;19968;-81
2022/07/27 00:41:05;;;;;;;;;;;;;;;18.03;49.11;101372.66;5008136;28;20004;-81
2022/07/27 00:43:30;;;;;;;;;;;;;;;18.07;49.31;101370.75;5007459;28;19921;-81
2022/07/27 00:45:56;;;;;;;;;;;;;;;18.00;48.66;101366.69;5007222;28;19952;-81
2022/07/27 00:48:21;;;;;;;;;;;;;;;18.03;48.81;101380.56;5008297;28;20372;-81
2022/07/27 00:50:47;;;;;;;;;;;;;;;18.10;48.26;101379.34;5007102;28;19926;-81
2022/07/27 00:53:12;;;;;;;;;;;;;;;17.88;49.00;101378.56;5007477;28;19971;-81
2022/07/27 00:55:38;;;;;;;;;;;;;;;17.99;49.12;101376.34;5004138;28;19922;-81
2022/07/27 00:58:05;;;;;;;;;;;;;;;17.98;48.99;101376.38;5006470;28;20328;-81
2022/07/27 01:00:30;;;;;;;;;;;;;;;17.91;48.90;101373.19;5007134;28;19925;-81
2022/07/27 01:02:56;;;;;;;;;;;;;;;17.97;48.74;101372.06;5006843;28;19952;-81
2022/07/27 01:05:21;;;;;;;;;;;;;;;17.91;49.34;101369.69;5002764;28;19925;-81
2022/07/27 01:07:48;;;;;;;;;;;;;;;18.05;48.46;101376.09;5007321;28;19922;-78
2022/07/27 01:10:13;;;;;;;;;;;;;;;17.90;48.52;101386.38;5008542;28;19918;-78
2022/07/27 01:12:38;;;;;;;;;;;;;;;17.94;48.10;101378.31;5004909;28;20324;-77
2022/07/27 01:15:04;;;;;;;;;;;;;;;17.99;48.08;101381.59;5007496;28;20016;-78
2022/07/27 01:17:30;;;;;;;;;;;;;;;17.80;48.78;101371.91;4997874;28;20308;-78
2022/07/27 01:19:56;;;;;;;;;;;;;;;17.80;48.55;101375.38;5007248;28;20388;-78
2022/07/27 01:22:21;;;;;;;;;;;;;;;17.83;48.16;101372.63;5005598;28;19930;-78
2022/07/27 01:24:48;;;;;;;;;;;;;;;17.83;49.34;101377.06;5001968;28;19925;-78
2022/07/27 01:27:13;;;;;;;;;;;;;;;17.95;48.92;101377.38;5007405;28;20015;-78
2022/07/27 01:29:39;;;;;;;;;;;;;;;17.95;48.57;101390.53;5004593;28;20008;-78
2022/07/27 01:32:04;;;;;;;;;;;;;;;17.89;48.74;101384.66;5001553;28;19922;-78
2022/07/27 01:34:32;;;;;;;;;;;;;;;17.85;48.48;101383.09;5007596;28;20079;-78
2022/07/27 01:36:57;;;;;;;;;;;;;;;17.97;47.85;101383.44;5005169;28;20288;-78
2022/07/27 01:39:23;;;;;;;;;;;;;;;17.85;48.03;101377.84;5009710;28;19921;-78
2022/07/27 01:41:48;;;;;;;;;;;;;;;17.78;49.13;101390.38;5004634;28;20001;-78
2022/07/27 01:44:14;;;;;;;;;;;;;;;17.75;48.12;101384.38;5002711;28;19925;-78
2022/07/27 01:46:39;;;;;;;;;;;;;;;17.64;49.12;101374.31;5005693;28;20544;-78
2022/07/27 01:49:04;;;;;;;;;;;;;;;17.68;49.19;101378.50;5005639;28;20487;-78
2022/07/27 01:51:30;;;;;;;;;;;;;;;17.66;48.56;101376.88;5003861;28;19928;-78
2022/07/27 01:53:55;;;;;;;;;;;;;;;17.69;49.07;101376.75;4990293;28;19925;-78
2022/07/27 01:56:21;;;;;;;;;;;;;;;17.57;48.82;101380.69;5006100;28;19925;-78
2022/07/27 01:58:46;;;;;;;;;;;;;;;17.54;49.49;101373.78;5006832;28;19927;-78
2022/07/27 02:01:11;;;;;;;;;;;;;;;17.63;48.91;101374.34;5003165;28;19964;-78
2022/07/27 02:03:37;;;;;;;;;;;;;;;17.75;48.69;101368.59;5002564;28;19925;-78
2022/07/27 02:06:03;;;;;;;;;;;;;;;17.65;48.49;101373.38;5000506;28;19925;-77
2022/07/27 02:08:28;;;;;;;;;;;;;;;17.59;49.08;101386.75;5006051;28;20349;-78
2022/07/27 02:13:38;;;;;;;;;;;;;;;17.56;49.26;101384.25;5007319;28;20143;-78
2022/07/27 02:16:03;;;;;;;;;;;;;;;17.44;49.84;101387.38;5007749;28;20375;-78
2022/07/27 02:18:29;;;;;;;;;;;;;;;17.35;49.86;101387.72;5001484;28;19929;-78
2022/07/27 02:20:54;;;;;;;;;;;;;;;17.46;50.15;101382.91;5003337;28;19926;-78
2022/07/27 02:23:19;;;;;;;;;;;;;;;17.39;50.32;101382.28;4999317;28;19934;-78
2022/07/27 02:25:45;;;;;;;;;;;;;;;17.44;50.23;101388.19;5001140;28;20335;-78
2022/07/27 02:28:10;;;;;;;;;;;;;;;17.45;50.01;101379.41;5001434;28;19917;-78
2022/07/27 02:30:36;;;;;;;;;;;;;;;17.48;49.75;101383.69;5007009;28;20016;-78
2022/07/27 02:33:02;;;;;;;;;;;;;;;17.46;49.59;101385.53;5007950;28;19932;-78
2022/07/27 02:35:27;;;;;;;;;;;;;;;17.53;49.74;101392.25;5007164;28;20312;-78
2022/07/27 02:37:52;;;;;;;;;;;;;;;17.53;49.85;101392.25;5003583;28;20463;-78
2022/07/27 02:40:18;;;;;;;;;;;;;;;17.48;49.93;101396.81;5006843;28;20414;-78
2022/07/27 02:42:44;;;;;;;;;;;;;;;17.53;49.68;101394.88;5002431;28;19925;-78
2022/07/27 02:45:10;;;;;;;;;;;;;;;17.50;50.35;101389.75;5001307;28;19922;-78
2022/07/27 02:47:35;;;;;;;;;;;;;;;17.47;50.10;101389.88;5002124;28;19931;-78
2022/07/27 02:50:01;;;;;;;;;;;;;;;17.51;49.84;101391.44;5003190;28;19926;-78
2022/07/27 02:52:26;;;;;;;;;;;;;;;17.48;50.02;101395.03;5003953;28;19921;-78
2022/07/27 02:54:52;;;;;;;;;;;;;;;17.49;50.29;101395.91;4996607;28;19928;-78
2022/07/27 02:57:17;;;;;;;;;;;;;;;17.41;50.59;101398.00;5001645;28;19933;-78
2022/07/27 02:59:42;;;;;;;;;;;;;;;17.46;50.00;101383.75;5003600;28;20388;-78
2022/07/27 03:02:08;;;;;;;;;;;;;;;17.33;50.86;101392.16;5002190;28;20292;-78
2022/07/27 03:04:33;;;;;;;;;;;;;;;17.18;51.34;101385.72;4988982;28;19960;-78
2022/07/27 03:06:58;;;;;;;;;;;;;;;17.30;51.50;101387.88;5002324;28;20400;-78
2022/07/27 03:09:24;;;;;;;;;;;;;;;17.36;51.26;101385.03;5006076;28;19925;-78
2022/07/27 03:11:49;;;;;;;;;;;;;;;17.40;50.87;101391.00;5002848;28;19956;-78
2022/07/27 03:14:14;;;;;;;;;;;;;;;17.34;51.83;101396.50;4999612;28;19962;-78
2022/07/27 03:16:40;;;;;;;;;;;;;;;17.26;51.76;101395.97;4996268;28;19929;-78
2022/07/27 03:19:05;;;;;;;;;;;;;;;17.29;51.37;101393.22;4989215;28;20016;-78
2022/07/27 03:21:30;;;;;;;;;;;;;;;17.29;51.35;101398.47;5002277;28;20051;-78
2022/07/27 03:23:56;;;;;;;;;;;;;;;17.29;52.04;101395.84;5002361;28;19952;-78
2022/07/27 03:26:21;;;;;;;;;;;;;;;17.31;52.27;101399.25;5004129;28;19996;-78
2022/07/27 03:28:46;;;;;;;;;;;;;;;17.24;52.15;101398.63;5004126;28;19929;-78
2022/07/27 03:31:12;;;;;;;;;;;;;;;17.30;51.71;101405.41;5001368;28;19917;-78
2022/07/27 03:33:37;;;;;;;;;;;;;;;17.18;52.42;101409.38;5019261;28;20467;-78
2022/07/27 03:36:03;;;;;;;;;;;;;;;17.15;52.72;101408.63;5006737;28;19953;-78
2022/07/27 03:38:28;;;;;;;;;;;;;;;17.10;52.96;101400.94;5000497;28;20024;-78
2022/07/27 03:40:53;;;;;;;;;;;;;;;17.16;52.83;101397.22;5000565;28;20384;-78
2022/07/27 03:43:19;;;;;;;;;;;;;;;17.18;52.65;101406.72;5006950;28;19921;-78
2022/07/27 03:45:44;;;;;;;;;;;;;;;17.11;53.14;101417.53;5006524;28;20295;-78
2022/07/27 03:48:09;;;;;;;;;;;;;;;17.15;52.48;101409.47;5001014;28;20400;-78
2022/07/27 03:50:35;;;;;;;;;;;;;;;17.11;53.11;101414.91;5003683;28;19921;-78
2022/07/27 03:53:00;;;;;;;;;;;;;;;16.92;53.62;101422.59;4998252;28;20020;-77
2022/07/27 03:55:26;;;;;;;;;;;;;;;17.01;53.64;101417.88;5006089;28;19922;-78
2022/07/27 03:57:51;;;;;;;;;;;;;;;16.95;54.11;101415.47;4999464;28;19927;-78
2022/07/27 04:00:17;;;;;;;;;;;;;;;17.06;53.80;101418.56;4999617;28;21294;-78
2022/07/27 04:02:42;;;;;;;;;;;;;;;17.05;53.60;101430.00;4996581;28;20038;-78
2022/07/27 04:05:08;;;;;;;;;;;;;;;17.04;53.22;101422.16;5004388;28;20540;-77
2022/07/27 04:07:34;;;;;;;;;;;;;;;17.03;53.55;101434.41;5004572;28;20926;-78
2022/07/27 04:09:59;;;;;;;;;;;;;;;16.88;54.72;101432.34;5004292;28;19948;-78
2022/07/27 04:12:24;;;;;;;;;;;;;;;16.98;53.79;101432.88;5009390;28;19960;-78
2022/07/27 04:14:50;;;;;;;;;;;;;;;16.99;53.33;101430.22;5007869;28;19983;-76
2022/07/27 04:17:15;;;;;;;;;;;;;;;16.91;53.84;101429.63;5002998;28;19929;-78
2022/07/27 04:19:40;;;;;;;;;;;;;;;16.96;53.29;101432.09;5007038;28;19925;-78
2022/07/27 04:22:06;;;;;;;;;;;;;;;16.91;53.56;101434.88;5005691;28;20024;-78
2022/07/27 04:24:31;;;;;;;;;;;;;;;17.00;53.05;101423.19;5010602;28;19938;-78
2022/07/27 04:26:56;;;;;;;;;;;;;;;16.96;53.82;101426.84;5007394;28;19922;-78
2022/07/27 04:29:22;;;;;;;;;;;;;;;16.96;53.35;101427.72;5001790;28;19979;-78
2022/07/27 04:31:47;;;;;;;;;;;;;;;16.98;53.66;101430.25;4998500;28;19922;-78
2022/07/27 04:34:12;;;;;;;;;;;;;;;16.96;54.03;101425.09;5005253;28;19929;-78
2022/07/27 04:36:38;;;;;;;;;;;;;;;17.06;52.82;101425.56;5004908;28;20048;-78
2022/07/27 04:39:03;;;;;;;;;;;;;;;17.01;53.60;101424.91;5010385;28;19949;-78
2022/07/27 04:41:29;;;;;;;;;;;;;;;16.97;53.66;101429.41;5000142;28;20495;-78
2022/07/27 04:43:54;;;;;;;;;;;;;;;17.00;53.41;101429.28;5005490;28;20661;-78
2022/07/27 04:46:20;;;;;;;;;;;;;;;16.92;54.14;101438.34;5004581;28;19918;-78
2022/07/27 04:48:45;;;;;;;;;;;;;;;16.89;54.20;101441.94;5006113;28;19941;-78
2022/07/27 04:51:14;;;;;;;;;;;;;;;16.94;54.07;101440.00;5005508;28;20361;-78
2022/07/27 04:53:40;;;;;;;;;;;;;;;16.92;53.98;101438.34;4999923;28;19918;-78
2022/07/27 04:56:05;;;;;;;;;;;;;;;16.91;54.38;101444.50;5003516;28;20008;-78
2022/07/27 04:58:30;;;;;;;;;;;;;;;16.98;53.76;101439.00;5010838;28;19923;-78
2022/07/27 05:00:56;;;;;;;;;;;;;;;16.97;54.04;101445.16;5007980;28;19917;-78
2022/07/27 05:03:21;;;;;;;;;;;;;;;16.95;53.49;101452.22;5006320;28;20390;-77
2022/07/27 05:05:46;;;;;;;;;;;;;;;16.93;53.69;101443.56;5006318;28;20590;-78
2022/07/27 05:08:12;;;;;;;;;;;;;;;16.87;54.19;101454.28;5004764;28;19980;-78
2022/07/27 05:10:37;;;;;;;;;;;;;;;16.96;54.11;101455.72;5007797;28;20025;-78
2022/07/27 05:13:02;;;;;;;;;;;;;;;16.94;54.18;101458.38;5004199;28;19977;-80
2022/07/27 05:15:28;;;;;;;;;;;;;;;16.90;54.75;101450.69;5001323;28;19922;-80
2022/07/27 05:17:53;;;;;;;;;;;;;;;16.96;54.09;101459.19;5000913;28;19922;-80
2022/07/27 05:20:18;;;;;;;;;;;;;;;16.89;54.81;101454.22;5009618;28;19917;-79
2022/07/27 05:22:43;;;;;;;;;;;;;;;16.91;54.69;101463.75;4999459;28;19976;-79
2022/07/27 05:25:09;;;;;;;;;;;;;;;16.89;54.69;101462.09;5004213;28;19939;-79
2022/07/27 05:27:36;;;;;;;;;;;;;;;16.93;54.66;101458.44;5001444;28;19925;-79
2022/07/27 05:30:02;;;;;;;;;;;;;;;16.88;54.98;101463.84;5003288;28;20376;-80
2022/07/27 05:32:28;;;;;;;;;;;;;;;16.79;54.89;101469.41;5002541;28;19921;-80
2022/07/27 05:34:53;;;;;;;;;;;;;;;16.80;54.60;101459.78;5003579;28;19922;-80
2022/07/27 05:37:18;;;;;;;;;;;;;;;16.86;55.06;101464.81;5006435;28;19928;-79
2022/07/27 05:39:44;;;;;;;;;;;;;;;16.68;55.47;101473.31;5001780;28;19997;-79
2022/07/27 05:42:09;;;;;;;;;;;;;;;16.64;55.44;101479.59;5005050;28;20067;-80
2022/07/27 05:44:34;;;;;;;;;;;;;;;16.81;55.10;101472.00;5006535;28;19956;-80
2022/07/27 05:47:00;;;;;;;;;;;;;;;16.83;55.15;101485.91;5009190;28;19921;-80
2022/07/27 05:49:25;;;;;;;;;;;;;;;16.84;55.07;101483.25;5003037;28;19934;-80
2022/07/27 05:51:50;;;;;;;;;;;;;;;17.00;54.17;101476.53;4999364;28;20364;-80
2022/07/27 05:54:17;;;;;;;;;;;;;;;16.90;54.37;101484.81;4998898;28;19932;-80
2022/07/27 05:56:42;;;;;;;;;;;;;;;16.87;54.58;101493.66;4999405;28;19929;-80
2022/07/27 05:59:07;;;;;;;;;;;;;;;16.91;54.18;101491.75;5003931;28;19943;-80
2022/07/27 06:01:33;;;;;;;;;;;;;;;16.91;54.94;101492.59;5000916;28;20000;-80
2022/07/27 06:03:58;;;;;;;;;;;;;;;16.87;55.30;101493.66;5001390;28;19926;-80
2022/07/27 06:09:07;;;;;;;;;;;;;;;16.92;54.45;101493.47;5000076;28;19928;-80
2022/07/27 06:11:33;;;;;;;;;;;;;;;16.93;54.59;101497.81;5000373;28;19921;-80
2022/07/27 06:13:58;;;;;;;;;;;;;;;16.96;54.36;101500.34;4996701;28;19943;-80
2022/07/27 06:16:23;;;;;;;;;;;;;;;16.87;54.58;101501.53;5003016;28;19921;-80
2022/07/27 06:18:49;;;;;;;;;;;;;;;17.00;54.16;101505.41;5000460;28;19952;-80
2022/07/27 06:21:14;;;;;;;;;;;;;;;16.99;54.13;101501.09;5002922;28;19922;-80
2022/07/27 06:23:39;;;;;;;;;;;;;;;16.92;54.23;101512.69;4997214;28;20289;-80
2022/07/27 06:26:05;;;;;;;;;;;;;;;16.92;54.71;101501.34;4999240;28;19926;-80
2022/07/27 06:28:30;;;;;;;;;;;;;;;16.99;54.13;101516.84;5002818;28;19925;-80
2022/07/27 06:30:56;;;;;;;;;;;;;;;16.90;54.60;101509.28;5006764;28;19921;-80
2022/07/27 06:33:26;;;;;;;;;;;;;;;16.89;55.13;101515.44;5006841;28;20411;-80
2022/07/27 06:35:52;;;;;;;;;;;;;;;16.76;55.55;101514.13;5004772;28;19926;-80
2022/07/27 06:38:18;;;;;;;;;;;;;;;16.92;54.88;101512.69;5003753;28;19971;-81
2022/07/27 06:40:43;;;;;;;;;;;;;;;17.02;54.49;101508.84;5004390;28;19968;-80
2022/07/27 06:43:08;;;;;;;;;;;;;;;16.85;55.21;101519.06;5005557;28;19980;-79
2022/07/27 06:45:34;;;;;;;;;;;;;;;16.96;55.15;101509.06;4985506;28;19921;-80
2022/07/27 06:47:59;;;;;;;;;;;;;;;16.88;54.96;101503.22;5001280;28;20285;-80
2022/07/27 06:50:25;;;;;;;;;;;;;;;17.02;54.11;101508.84;5005505;28;20008;-80
2022/07/27 06:52:50;;;;;;;;;;;;;;;16.94;55.19;101510.88;5002391;28;19928;-80
2022/07/27 06:55:15;;;;;;;;;;;;;;;17.12;54.54;101509.34;4995417;28;19991;-80
2022/07/27 06:57:41;;;;;;;;;;;;;;;17.09;54.10;101512.09;5001449;28;20436;-80
2022/07/27 07:00:07;;;;;;;;;;;;;;;16.95;53.96;101515.22;5003812;28;20359;-79
2022/07/27 07:02:32;;;;;;;;;;;;;;;16.93;54.06;101506.56;5002216;28;19930;-80
2022/07/27 07:04:58;;;;;;;;;;;;;;;16.98;54.17;101514.25;5000906;28;20319;-80
2022/07/27 07:07:23;;;;;;;;;;;;;;;16.98;54.29;101507.22;5003438;28;19921;-80
2022/07/27 07:09:51;;;;;;;;;;;;;;;17.08;53.85;101505.16;5001836;28;19983;-80
2022/07/27 07:12:17;;;;;;;;;;;;;;;17.10;53.61;101502.44;5002357;28;19922;-80
2022/07/27 07:14:42;;;;;;;;;;;;;;;16.93;53.70;101506.56;5004834;28;20284;-80
2022/07/27 07:17:08;;;;;;;;;;;;;;;16.89;54.82;101509.31;5003060;28;19964;-80
2022/07/27 07:19:33;;;;;;;;;;;;;;;17.01;53.83;101507.13;5003759;28;20491;-80
2022/07/27 07:21:58;;;;;;;;;;;;;;;16.98;54.51;101503.75;5006061;28;19944;-80
2022/07/27 07:24:24;;;;;;;;;;;;;;;17.05;54.78;101513.13;5000319;28;19933;-80
2022/07/27 07:26:49;;;;;;;;;;;;;;;16.98;54.30;101515.13;4999747;28;19921;-80
2022/07/27 07:29:15;;;;;;;;;;;;;;;16.93;54.48;101513.56;5016886;28;19948;-80
2022/07/27 07:31:43;;;;;;;;;;;;;;;17.02;54.29;101508.84;4997688;28;19925;-80
2022/07/27 07:34:08;;;;;;;;;;;;;;;17.15;54.38;101511.88;5005023;28;19921;-80
2022/07/27 07:36:34;;;;;;;;;;;;;;;17.10;54.87;101507.69;5000724;28;19929;-80
2022/07/27 07:38:59;;;;;;;;;;;;;;;17.26;52.89;101503.63;5004558;28;19933;-79
2022/07/27 07:41:25;;;;;;;;;;;;;;;17.25;52.65;101504.53;4999599;28;19922;-80
2022/07/27 07:43:50;;;;;;;;;;;;;;;17.12;52.79;101503.25;5010488;28;20503;-80
2022/07/27 07:46:15;;;;;;;;;;;;;;;17.14;53.01;101507.56;5006557;28;19986;-80
2022/07/27 07:48:42;;;;;;;;;;;;;;;17.25;52.05;101501.88;5008017;28;19937;-80
2022/07/27 07:51:07;;;;;;;;;;;;;;;17.23;50.39;101499.34;5009098;28;19922;-80
2022/07/27 07:53:33;;;;;;;;;;;;;;;17.17;50.51;101503.94;5004108;28;19922;-80
2022/07/27 07:55:58;;;;;;;;;;;;;;;17.07;50.12;101500.78;5003096;28;20004;-80
2022/07/27 07:58:24;;;;;;;;;;;;;;;17.19;49.87;101504.75;5006167;28;19961;-80
2022/07/27 08:00:49;;;;;;;;;;;;;;;17.21;49.76;101502.91;5021448;28;19953;-80
2022/07/27 08:03:15;;;;;;;;;;;;;;;17.26;49.53;101516.75;5006582;28;19932;-80
2022/07/27 08:05:40;;;;;;;;;;;;;;;17.26;49.04;101501.00;5012345;28;20273;-80
2022/07/27 08:08:05;;;;;;;;;;;;;;;17.21;49.69;101508.16;5019898;28;19930;-80
2022/07/27 08:10:31;;;;;;;;;;;;;;;17.21;50.00;101509.00;5006756;28;19953;-80
2022/07/27 08:12:56;;;;;;;;;;;;;;;17.34;49.17;101506.81;5001938;28;19941;-80
2022/07/27 08:15:27;;;;;;;;;;;;;;;17.33;49.63;101512.97;5003870;28;19925;-80
2022/07/27 08:17:52;;;;;;;;;;;;;;;17.41;49.00;101514.38;5001327;28;20516;-80
2022/07/27 08:20:18;;;;;;;;;;;;;;;17.42;48.59;101515.25;5001598;28;19927;-80
2022/07/27 08:22:43;;;;;;;;;;;;;;;17.42;49.08;101513.47;5003620;28;19945;-80
2022/07/27 08:25:09;;;;;;;;;;;;;;;17.36;48.36;101512.84;4999527;28;19968;-80
2022/07/27 08:27:35;;;;;;;;;;;;;;;17.42;47.93;101504.75;5004174;28;19941;-80
2022/07/27 08:30:00;;;;;;;;;;;;;;;17.37;47.96;101509.31;5012686;28;19955;-80
2022/07/27 08:32:27;;;;;;;;;;;;;;;17.43;47.66;101498.59;5006265;28;20392;-80
2022/07/27 08:34:53;;;;;;;;;;;;;;;17.45;47.63;101505.47;5010421;28;20311;-80
2022/07/27 08:37:18;;;;;;;;;;;;;;;17.47;48.28;101505.44;5005852;28;19925;-80
2022/07/27 08:39:43;;;;;;;;;;;;;;;17.42;47.43;101515.25;5007313;28;19978;-80
2022/07/27 08:42:09;;;;;;;;;;;;;;;17.54;48.23;101509.53;5003494;28;19929;-80
2022/07/27 08:44:37;;;;;;;;;;;;;;;17.64;50.30;101510.94;5003563;28;19933;-80
2022/07/27 08:47:03;;;;;;;;;;;;;;;17.60;46.94;101507.56;5003325;28;19933;-80
2022/07/27 08:49:29;;;;;;;;;;;;;;;17.67;46.20;101500.31;5005490;28;20004;-80
2022/07/27 08:51:55;;;;;;;;;;;;;;;17.59;46.97;101502.34;5002741;28;19941;-80
2022/07/27 08:54:20;;;;;;;;;;;;;;;17.52;46.82;101508.75;4998875;28;20380;-80
2022/07/27 08:56:46;;;;;;;;;;;;;;;17.59;46.37;101495.34;5001894;28;19921;-80
2022/07/27 08:59:12;;;;;;;;;;;;;;;17.78;47.22;101503.38;5004131;28;19937;-80
2022/07/27 09:01:38;;;;;;;;;;;;;;;17.72;45.88;101505.38;5004797;28;19921;-80
2022/07/27 09:04:03;;;;;;;;;;;;;;;17.84;45.93;101503.13;5005814;28;20442;-80
2022/07/27 09:06:49;;;;;;;;;;;;;;;17.96;46.58;101499.16;5005170;28;19929;-80
2022/07/27 09:09:15;;;;;;;;;;;;;;;17.99;45.98;101505.16;5007695;28;19929;-80
2022/07/27 09:11:41;;;;;;;;;;;;;;;17.96;46.68;101505.28;5005886;28;19922;-80
2022/07/27 09:14:07;;;;;;;;;;;;;;;17.90;45.21;101500.25;5005333;28;19929;-80
2022/07/27 09:16:35;;;;;;;;;;;;;;;18.01;44.66;101497.19;5005528;28;20408;-80
2022/07/27 09:19:08;;;;;;;;;;;;;;;17.96;43.83;101491.28;5007000;28;19940;-80
2022/07/27 09:21:35;;;;;;;;;;;;;;;17.90;44.31;101505.50;5004504;28;19925;-80
2022/07/27 09:24:06;;;;;;;;;;;;;;;17.95;44.49;101500.94;5000296;28;19925;-80
2022/07/27 09:26:32;;;;;;;;;;;;;;;17.96;43.46;101497.38;5000443;28;20412;-80
2022/07/27 09:28:58;;;;;;;;;;;;;;;18.05;44.29;101494.41;5007637;28;19922;-80
2022/07/27 09:31:24;;;;;;;;;;;;;;;18.08;44.33;101499.53;5006368;28;19960;-80
2022/07/27 09:33:51;;;;;;;;;;;;;;;18.02;44.26;101498.91;5004369;28;20633;-80
2022/07/27 09:36:17;;;;;;;;;;;;;;;18.04;44.27;101504.94;5020754;28;19921;-80
2022/07/27 09:38:53;;;;;;;;;;;;;;;18.07;43.80;101502.19;4999704;28;20403;-81
2022/07/27 09:41:19;;;;;;;;;;;;;;;18.14;43.64;101495.78;5006663;28;19929;-80
2022/07/27 09:43:48;;;;;;;;;;;;;;;18.05;42.63;101496.16;5000193;28;19956;-80
2022/07/27 09:46:14;;;;;;;;;;;;;;;18.16;43.72;101500.06;5006249;28;19923;-80
2022/07/27 09:48:40;;;;;;;;;;;;;;;18.16;42.77;101505.31;5002351;28;20535;-80
2022/07/27 09:51:07;;;;;;;;;;;;;;;18.18;44.28;101498.22;5005307;28;19929;-80
2022/07/27 09:53:33;;;;;;;;;;;;;;;18.22;44.45;101495.47;5005103;28;19992;-80
2022/07/27 09:56:12;;;;;;;;;;;;;;;18.14;42.79;101494.03;5004604;28;19969;-80
2022/07/27 09:59:01;;;;;;;;;;;;;;;18.02;42.90;101496.28;4998297;28;19930;-80
2022/07/27 10:01:27;;;;;;;;;;;;;;;18.20;43.45;101500.81;4993294;28;19917;-80
2022/07/27 10:03:55;;;;;;;;;;;;;;;18.24;43.45;101488.38;5005505;28;19932;-80
2022/07/27 10:06:21;;;;;;;;;;;;;;;18.23;43.70;101492.78;5006143;28;20324;-80
2022/07/27 10:08:47;;;;;;;;;;;;;;;18.22;43.75;101498.09;5007117;28;20023;-80
2022/07/27 10:11:13;;;;;;;;;;;;;;;18.07;44.45;101504.84;5006651;28;19926;-80
2022/07/27 10:13:39;;;;;;;;;;;;;;;18.15;44.22;101505.41;5008048;28;19921;-80
2022/07/27 10:16:05;;;;;;;;;;;;;;;18.18;44.98;101495.59;5003739;28;19929;-80
2022/07/27 10:18:44;;;;;;;;;;;;;;;18.31;44.11;101502.97;5001860;28;19926;-80
2022/07/27 10:21:10;;;;;;;;;;;;;;;18.16;43.32;101496.56;5001474;28;20437;-80
2022/07/27 10:23:39;;;;;;;;;;;;;;;18.18;42.86;101500.84;5001661;28;19948;-80
2022/07/27 10:26:13;;;;;;;;;;;;;;;18.15;42.99;101498.34;5002296;28;19936;-80
2022/07/27 10:29:05;;;;;;;;;;;;;;;18.23;43.41;101499.81;5004602;28;20434;-80
2022/07/27 10:31:32;;;;;;;;;;;;;;;18.26;43.05;101505.81;4998143;28;19926;-80
2022/07/27 10:33:59;;;;;;;;;;;;;;;18.17;42.84;101498.28;5001582;28;19975;-80
2022/07/27 10:36:31;;;;;;;;;;;;;;;18.21;43.54;101506.91;5012646;28;19933;-81
2022/07/27 10:38:57;;;;;;;;;;;;;;;18.31;43.47;101500.34;4994302;28;20000;-80
2022/07/27 10:41:24;;;;;;;;;;;;;;;18.31;42.82;101498.56;4997035;28;20291;-80
2022/07/27 10:44:09;;;;;;;;;;;;;;;18.34;42.60;101494.97;5001360;28;20542;-80
2022/07/27 10:46:36;;;;;;;;;;;;;;;18.45;43.50;101495.38;4997226;28;19967;-80
2022/07/27 10:49:15;;;;;;;;;;;;;;;18.45;43.77;101495.38;5010151;28;20708;-81
2022/07/27 10:51:40;;;;;;;;;;;;;;;18.48;43.56;101504.00;5005732;28;19922;-80
2022/07/27 10:54:32;;;;;;;;;;;;;;;18.37;42.67;101503.59;5002580;28;19926;-81
2022/07/27 10:56:58;;;;;;;;;;;;;;;18.37;42.12;101506.22;5000106;28;19944;-81
2022/07/27 10:59:33;;;;;;;;;;;;;;;18.42;43.09;101501.59;5002801;28;19918;-81
2022/07/27 11:01:58;;;;;;;;;;;;;;;18.49;42.34;101508.38;5008523;28;19917;-80
2022/07/27 11:04:24;;;;;;;;;;;;;;;18.52;40.96;101502.97;4982327;28;20278;-80
2022/07/27 11:06:54;;;;;;;;;;;;;;;18.59;41.45;101498.31;5000664;28;19918;-80
2022/07/27 11:09:19;;;;;;;;;;;;;;;18.59;40.67;101493.06;5006396;28;19929;-80
2022/07/27 11:11:47;;;;;;;;;;;;;;;18.51;41.40;101488.09;5006646;28;19929;-80
2022/07/27 11:14:13;;;;;;;;;;;;;;;18.56;40.93;101483.53;5003182;28;19930;-80
2022/07/27 11:16:39;;;;;;;;;;;;;;;18.55;41.17;101491.47;4991326;28;19922;-80
2022/07/27 11:19:05;;;;;;;;;;;;;;;18.56;39.30;101480.03;5000397;28;19925;-80
2022/07/27 11:21:37;;;;;;;;;;;;;;;18.59;38.95;101480.75;5000282;28;20355;-80
2022/07/27 11:24:04;;;;;;;;;;;;;;;18.58;39.01;101481.66;4982325;28;19929;-80
2022/07/27 11:26:35;;;;;;;;;;;;;;;18.45;38.73;101472.56;4999773;28;20720;-80
2022/07/27 11:29:00;;;;;;;;;;;;;;;18.58;40.02;101479.03;5002228;28;19929;-80
2022/07/27 11:31:25;;;;;;;;;;;;;;;18.65;39.50;101471.75;5002306;28;19929;-80
2022/07/27 11:33:52;;;;;;;;;;;;;;;18.64;40.95;101470.88;5000496;28;20566;-80
2022/07/27 11:36:19;;;;;;;;;;;;;;;18.67;39.63;101472.53;5002312;28;20404;-80
2022/07/27 11:38:51;;;;;;;;;;;;;;;18.63;39.74;101470.94;5000486;28;19936;-81
2022/07/27 11:41:35;;;;;;;;;;;;;;;18.60;39.77;101476.34;4996770;28;20012;-81
2022/07/27 11:44:08;;;;;;;;;;;;;;;18.68;40.36;101466.34;5000416;28;19925;-81
2022/07/27 11:46:41;;;;;;;;;;;;;;;18.76;41.77;101471.25;4999402;28;19922;-80
2022/07/27 11:49:07;;;;;;;;;;;;;;;18.73;39.23;101461.72;5005079;28;19964;-81
2022/07/27 11:51:48;;;;;;;;;;;;;;;18.76;38.89;101464.22;4997801;28;19925;-82
2022/07/27 11:54:24;;;;;;;;;;;;;;;18.81;39.86;101456.16;4996919;28;20316;-81
2022/07/27 11:56:52;;;;;;;;;;;;;;;18.86;40.31;101455.00;4980409;28;19921;-81
2022/07/27 11:59:21;;;;;;;;;;;;;;;18.87;39.90;101450.59;4995705;28;19922;-81
2022/07/27 12:01:49;;;;;;;;;;;;;;;18.93;40.61;101447.66;4995736;28;19929;-80
2022/07/27 12:04:17;;;;;;;;;;;;;;;18.88;40.33;101457.56;5003420;28;19918;-81
2022/07/27 12:06:44;;;;;;;;;;;;;;;18.85;39.95;101448.03;4999553;28;19930;-81
2022/07/27 12:09:11;;;;;;;;;;;;;;;18.94;40.54;101444.13;4999004;28;19921;-81
2022/07/27 12:11:49;;;;;;;;;;;;;;;18.93;39.53;101445.91;4999061;28;20359;-81
2022/07/27 12:14:15;;;;;;;;;;;;;;;18.94;39.62;101444.13;4997691;28;19937;-81
2022/07/27 12:16:41;;;;;;;;;;;;;;;18.97;39.68;101449.25;5002405;28;19930;-81
2022/07/27 12:19:06;;;;;;;;;;;;;;;19.08;39.51;101446.97;4999839;28;20301;-81
2022/07/27 12:21:32;;;;;;;;;;;;;;;18.98;39.28;101443.06;5002817;28;19980;-81
2022/07/27 12:23:57;;;;;;;;;;;;;;;19.01;38.93;101441.16;4997895;28;20388;-81
2022/07/27 12:26:24;;;;;;;;;;;;;;;18.96;39.22;101440.50;5013599;28;20476;-81
2022/07/27 12:29:16;;;;;;;;;;;;;;;18.93;39.42;101427.47;5005796;28;19933;-80
2022/07/27 12:31:48;;;;;;;;;;;;;;;19.01;39.47;101427.13;5002787;28;19925;-81
2022/07/27 12:34:13;;;;;;;;;;;;;;;19.13;39.21;101430.03;5005825;28;19954;-81
2022/07/27 12:36:40;;;;;;;;;;;;;;;19.14;38.95;101431.75;4999476;28;19921;-81
2022/07/27 12:39:05;;;;;;;;;;;;;;;19.18;38.73;101419.31;5003040;28;19929;-81